Terminal Aerodrome Forecast
Issued by NWS

Home | Current Version | Previous Version | Text Only | Print | Product List | Glossary On
Versions: 1 2 3 4 5 6 7 8 9 10 11 12 13 14 15 16 17 18 19
000
FTUS43 KAPX 251720
TAFPLN
TAF
KPLN 251720Z 2518/2618 29017G25KT 2SM -SHSN BLSN OVC020
      TEMPO 2518/2522 3/4SM -SHSN OVC019
     FM260000 29015G27KT P6SM VCSH OVC035
     FM260400 28011G22KT P6SM BKN050
     FM260800 27008KT P6SM SCT090
     FM261100 24008KT P6SM BKN040
     FM261200 23008KT P6SM BKN025
     FM261400 23011G23KT P6SM BKN025=

USA.gov is the U.S. government's official web portal to all federal, state and local government web resources and services.